createdAt,value
2023-10-10T00:02:20.109Z,100.00
2023-10-10T00:04:49.145Z,100.00
2023-10-10T00:07:16.876Z,100.00
2023-10-10T00:09:45.913Z,100.00
2023-10-10T00:12:27.215Z,100.00
2023-10-10T00:14:54.543Z,100.00
2023-10-10T00:17:24.317Z,100.00
2023-10-10T00:19:55.848Z,100.00
2023-10-10T00:22:29.064Z,100.00
2023-10-10T00:24:56.033Z,100.00
2023-10-10T00:27:25.192Z,100.00
2023-10-10T00:29:52.354Z,100.00
2023-10-10T00:32:23.375Z,100.00
2023-10-10T00:34:52.063Z,100.00
2023-10-10T00:37:30.659Z,100.00
2023-10-10T00:40:01.294Z,100.00
2023-10-10T00:42:43.172Z,100.00
2023-10-10T00:45:13.497Z,100.00
2023-10-10T00:47:44.804Z,100.00
2023-10-10T00:50:17.647Z,100.00
2023-10-10T00:52:57.845Z,100.00
2023-10-10T00:55:26.704Z,100.00
2023-10-10T00:57:57.737Z,100.00
2023-10-10T01:00:26.604Z,100.00
2023-10-10T01:02:54.442Z,100.00
2023-10-10T01:05:25.712Z,100.00
2023-10-10T01:07:55.743Z,100.00
2023-10-10T01:10:22.927Z,100.00
2023-10-10T01:12:50.102Z,100.00
2023-10-10T01:15:26.325Z,100.00
2023-10-10T01:17:55.519Z,100.00
2023-10-10T01:20:46.468Z,100.00
2023-10-10T01:23:16.625Z,100.00
2023-10-10T01:25:47.564Z,100.00
2023-10-10T01:28:24.915Z,100.00
2023-10-10T01:30:58.950Z,100.00
2023-10-10T01:33:37.931Z,100.00
2023-10-10T01:36:20.327Z,100.00
2023-10-10T01:39:21.244Z,100.00
2023-10-10T01:41:51.427Z,100.00
2023-10-10T01:44:24.230Z,100.00
2023-10-10T01:46:54.738Z,100.00
2023-10-10T01:49:22.933Z,100.00
2023-10-10T01:52:00.452Z,100.00
2023-10-10T01:54:42.934Z,99.91
2023-10-10T01:57:22.141Z,99.60
2023-10-10T01:59:50.636Z,99.47
2023-10-10T02:02:20.206Z,99.92
2023-10-10T02:04:49.125Z,99.60
2023-10-10T02:07:25.320Z,99.94
2023-10-10T02:10:14.666Z,100.00
2023-10-10T02:12:46.562Z,99.93
2023-10-10T02:15:17.565Z,99.88
2023-10-10T02:18:07.934Z,99.63
2023-10-10T02:20:51.372Z,99.35
2023-10-10T02:23:35.579Z,99.43
2023-10-10T02:26:24.995Z,99.42
2023-10-10T02:29:12.852Z,99.82
2023-10-10T02:31:43.210Z,99.54
2023-10-10T02:34:11.857Z,99.19
2023-10-10T02:36:42.315Z,99.34
2023-10-10T02:39:18.251Z,99.40
2023-10-10T02:41:50.806Z,99.48
2023-10-10T02:44:27.699Z,99.59
2023-10-10T02:46:57.984Z,99.65
2023-10-10T02:49:31.100Z,99.54
2023-10-10T02:51:59.904Z,99.42
2023-10-10T02:54:28.562Z,99.27
2023-10-10T02:57:27.140Z,99.16
2023-10-10T03:00:17.455Z,99.24
2023-10-10T03:02:51.743Z,98.87
2023-10-10T03:05:45.858Z,99.22
2023-10-10T03:08:15.783Z,98.88
2023-10-10T03:10:55.652Z,99.00
2023-10-10T03:13:48.861Z,99.16
2023-10-10T03:16:36.679Z,99.17
2023-10-10T03:19:04.883Z,98.73
2023-10-10T03:21:44.690Z,98.65
2023-10-10T03:24:21.753Z,98.88
2023-10-10T03:27:21.283Z,98.78
2023-10-10T03:29:48.834Z,98.70
2023-10-10T03:32:34.753Z,98.70
2023-10-10T03:35:21.589Z,98.75
2023-10-10T03:38:05.888Z,98.68
2023-10-10T03:40:52.450Z,98.57
2023-10-10T03:43:38.276Z,98.73
2023-10-10T03:46:24.291Z,98.81
2023-10-10T03:49:10.558Z,98.82
2023-10-10T03:51:56.010Z,98.71
2023-10-10T03:54:42.074Z,98.00
2023-10-10T03:57:27.573Z,98.34
2023-10-10T04:00:13.293Z,98.20
2023-10-10T04:02:59.215Z,98.15
2023-10-10T04:05:45.086Z,98.11
2023-10-10T04:08:30.783Z,98.21
2023-10-10T04:11:16.274Z,98.25
2023-10-10T04:14:01.753Z,98.24
2023-10-10T04:16:47.373Z,98.24
2023-10-10T04:19:33.243Z,98.46
2023-10-10T04:22:19.095Z,98.43
2023-10-10T04:25:04.725Z,97.92
2023-10-10T04:27:50.856Z,98.20
2023-10-10T04:30:36.868Z,97.89
2023-10-10T04:33:22.502Z,98.08
2023-10-10T04:36:08.614Z,97.90
2023-10-10T04:38:54.367Z,97.96
2023-10-10T04:41:39.857Z,97.71
2023-10-10T04:44:25.896Z,97.70
2023-10-10T04:47:12.157Z,97.48
2023-10-10T04:49:57.816Z,97.67
2023-10-10T04:52:43.497Z,97.56
2023-10-10T04:55:28.962Z,97.32
2023-10-10T04:58:14.666Z,97.49
2023-10-10T05:01:20.151Z,97.52
2023-10-10T05:04:05.824Z,97.66
2023-10-10T05:06:51.425Z,97.19
2023-10-10T05:09:37.468Z,97.21
2023-10-10T05:12:23.621Z,97.33
2023-10-10T05:15:09.572Z,97.37
2023-10-10T05:17:55.093Z,97.17
2023-10-10T05:20:41.356Z,97.28
2023-10-10T05:23:27.402Z,97.46
2023-10-10T05:25:55.233Z,97.32
2023-10-10T05:28:23.510Z,97.25
2023-10-10T05:30:52.319Z,97.18
2023-10-10T05:33:21.088Z,97.39
2023-10-10T05:35:51.310Z,97.08
2023-10-10T05:38:18.412Z,97.00
2023-10-10T05:40:48.674Z,97.08
2023-10-10T05:43:17.472Z,97.28
2023-10-10T05:45:45.579Z,96.99
2023-10-10T05:48:13.774Z,96.80
2023-10-10T05:50:44.333Z,96.19
2023-10-10T05:53:11.444Z,96.67
2023-10-10T05:55:38.990Z,96.67
2023-10-10T05:58:06.964Z,96.87
2023-10-10T06:00:43.261Z,96.80
2023-10-10T06:03:11.600Z,97.04
2023-10-10T06:05:42.608Z,97.13
2023-10-10T06:08:09.779Z,97.21
2023-10-10T06:10:36.756Z,97.33
2023-10-10T06:13:08.240Z,96.74
2023-10-10T06:15:36.231Z,97.01
2023-10-10T06:18:15.144Z,96.88
2023-10-10T06:20:58.152Z,96.62
2023-10-10T06:23:34.515Z,96.53
2023-10-10T06:26:05.532Z,96.76
2023-10-10T06:28:46.426Z,96.82
2023-10-10T06:31:33.025Z,96.75
2023-10-10T06:34:01.079Z,96.66
2023-10-10T06:36:34.033Z,96.30
2023-10-10T06:39:19.914Z,96.46
2023-10-10T06:41:49.456Z,96.98
2023-10-10T06:44:19.596Z,96.96
2023-10-10T06:46:50.279Z,96.78
2023-10-10T06:49:19.672Z,96.80
2023-10-10T06:51:47.060Z,96.75
2023-10-10T06:54:21.337Z,96.75
2023-10-10T06:57:09.207Z,96.73
2023-10-10T06:59:36.739Z,96.97
2023-10-10T07:02:15.405Z,97.45
2023-10-10T07:04:42.623Z,97.02
2023-10-10T07:07:11.386Z,97.24
2023-10-10T07:09:38.713Z,97.03
2023-10-10T07:12:12.710Z,97.17
2023-10-10T07:14:48.351Z,96.64
2023-10-10T07:17:16.424Z,96.95
2023-10-10T07:20:03.350Z,97.07
2023-10-10T07:22:36.543Z,97.55
2023-10-10T07:25:09.646Z,97.41
2023-10-10T07:27:38.310Z,97.66
2023-10-10T07:30:18.239Z,97.64
2023-10-10T07:32:52.476Z,97.99
2023-10-10T07:35:27.131Z,98.08
2023-10-10T07:37:58.616Z,98.46
2023-10-10T07:40:32.647Z,98.77
2023-10-10T07:43:00.459Z,99.03
2023-10-10T07:45:35.352Z,99.46
2023-10-10T07:48:04.007Z,99.50
2023-10-10T07:50:36.559Z,99.69
2023-10-10T07:53:07.252Z,99.61
2023-10-10T07:55:53.704Z,99.47
2023-10-10T07:58:45.027Z,99.78
2023-10-10T08:01:20.433Z,99.82
2023-10-10T08:03:49.709Z,99.75
2023-10-10T08:06:20.323Z,100.00
2023-10-10T08:08:50.465Z,100.00
2023-10-10T08:11:29.166Z,100.00
2023-10-10T08:13:56.959Z,100.00
2023-10-10T08:16:31.135Z,100.00
2023-10-10T08:19:05.915Z,100.00
2023-10-10T08:21:54.514Z,100.00
2023-10-10T08:24:21.715Z,100.00
2023-10-10T08:26:52.856Z,100.00
2023-10-10T08:29:24.580Z,100.00
2023-10-10T08:31:53.198Z,100.00
2023-10-10T08:34:20.517Z,100.00
2023-10-10T08:36:47.674Z,100.00
2023-10-10T08:39:14.690Z,100.00
2023-10-10T08:41:42.784Z,100.00
2023-10-10T08:44:11.736Z,99.76
2023-10-10T08:46:44.755Z,100.00
2023-10-10T08:49:13.300Z,99.46
2023-10-10T08:51:40.886Z,98.55
2023-10-10T08:54:12.108Z,99.13
2023-10-10T08:56:42.550Z,99.10
2023-10-10T08:59:12.390Z,99.00
2023-10-10T09:01:40.935Z,98.85
2023-10-10T09:04:14.339Z,97.67
2023-10-10T09:06:59.384Z,97.09
2023-10-10T09:09:59.527Z,96.38
2023-10-10T09:12:26.589Z,96.62
2023-10-10T09:14:53.714Z,97.04
2023-10-10T09:17:40.287Z,97.06
2023-10-10T09:20:25.072Z,97.11
2023-10-10T09:22:59.219Z,96.76
2023-10-10T09:25:32.860Z,97.17
2023-10-10T09:28:00.962Z,97.27
2023-10-10T09:30:36.424Z,96.51
2023-10-10T09:33:37.020Z,96.09
2023-10-10T09:36:17.308Z,96.86
2023-10-10T09:38:48.366Z,96.56
2023-10-10T09:41:38.255Z,96.91
2023-10-10T09:44:24.792Z,96.01
2023-10-10T09:47:05.533Z,96.07
2023-10-10T09:50:00.691Z,96.45
2023-10-10T09:52:47.818Z,96.89
2023-10-10T09:55:15.508Z,96.40
2023-10-10T09:58:02.600Z,96.07
2023-10-10T10:00:40.085Z,96.54
2023-10-10T10:03:28.208Z,96.52
2023-10-10T10:07:04.442Z,95.80
2023-10-10T10:09:47.303Z,95.40
2023-10-10T10:12:51.552Z,95.01
2023-10-10T10:15:21.469Z,94.27
2023-10-10T10:18:28.625Z,94.86
2023-10-10T10:21:09.303Z,94.44
2023-10-10T10:23:46.839Z,94.56
2023-10-10T10:26:43.306Z,94.59
2023-10-10T10:29:38.419Z,94.75
2023-10-10T10:32:08.827Z,94.35
2023-10-10T10:34:37.079Z,92.74
2023-10-10T10:37:14.570Z,92.44
2023-10-10T10:40:03.579Z,90.71
2023-10-10T10:42:36.055Z,90.65
2023-10-10T10:45:43.009Z,91.33
2023-10-10T10:48:31.316Z,90.39
2023-10-10T10:51:03.330Z,90.24
2023-10-10T10:53:39.323Z,89.36
2023-10-10T10:56:19.319Z,89.70
2023-10-10T10:58:56.647Z,89.88
2023-10-10T11:01:30.426Z,90.44
2023-10-10T11:03:57.732Z,90.13
2023-10-10T11:06:30.183Z,88.53
2023-10-10T11:09:11.287Z,89.23
2023-10-10T11:11:38.678Z,89.16
2023-10-10T11:14:16.206Z,88.64
2023-10-10T11:16:47.836Z,87.40
2023-10-10T11:19:24.440Z,87.58
2023-10-10T11:21:56.571Z,87.19
2023-10-10T11:24:30.546Z,86.77
2023-10-10T11:27:08.747Z,86.85
2023-10-10T11:29:46.021Z,86.22
2023-10-10T11:32:15.554Z,86.11
2023-10-10T11:34:46.529Z,86.44
2023-10-10T11:37:33.778Z,87.04
2023-10-10T11:40:28.576Z,86.51
2023-10-10T11:42:57.389Z,86.39
2023-10-10T11:45:28.583Z,85.85
2023-10-10T11:48:13.522Z,85.54
2023-10-10T11:50:49.191Z,86.04
2023-10-10T11:53:21.438Z,85.48
2023-10-10T11:55:49.036Z,84.86
2023-10-10T11:58:18.899Z,84.60
2023-10-10T12:01:01.031Z,84.20
2023-10-10T12:03:41.863Z,83.82
2023-10-10T12:06:23.132Z,84.79
2023-10-10T12:08:51.992Z,85.03
2023-10-10T12:11:24.045Z,84.91
2023-10-10T12:13:52.821Z,84.59
2023-10-10T12:16:29.369Z,84.86
2023-10-10T12:18:56.793Z,84.50
2023-10-10T12:21:25.452Z,84.59
2023-10-10T12:24:01.402Z,83.99
2023-10-10T12:26:37.663Z,83.64
2023-10-10T12:29:04.819Z,83.51
2023-10-10T12:31:35.492Z,83.90
2023-10-10T12:34:03.141Z,84.85
2023-10-10T12:36:31.069Z,85.10
2023-10-10T12:39:01.636Z,85.21
2023-10-10T12:41:29.509Z,85.14
2023-10-10T12:43:56.793Z,84.42
2023-10-10T12:46:23.846Z,84.50
2023-10-10T12:48:54.350Z,85.02
2023-10-10T12:51:25.706Z,85.17
2023-10-10T12:54:02.250Z,84.95
2023-10-10T12:56:30.045Z,84.31
2023-10-10T12:59:19.126Z,84.96
2023-10-10T13:01:57.470Z,85.25
2023-10-10T13:04:31.030Z,85.00
2023-10-10T13:07:04.666Z,85.09
2023-10-10T13:09:33.253Z,84.79
2023-10-10T13:12:04.890Z,85.02
2023-10-10T13:14:34.540Z,84.56
2023-10-10T13:17:30.119Z,84.56
2023-10-10T13:20:00.067Z,84.81
2023-10-10T13:22:30.726Z,84.92
2023-10-10T13:24:58.439Z,83.69
2023-10-10T13:27:26.750Z,83.91
2023-10-10T13:29:54.056Z,84.31
2023-10-10T13:32:21.860Z,84.60
2023-10-10T13:34:49.434Z,84.51
2023-10-10T13:37:16.517Z,84.29
2023-10-10T13:39:50.108Z,84.35
2023-10-10T13:42:19.236Z,84.36
2023-10-10T13:44:47.520Z,84.15
2023-10-10T13:47:14.688Z,83.87
2023-10-10T13:49:59.845Z,83.81
2023-10-10T13:52:26.804Z,83.74
2023-10-10T13:54:53.925Z,83.81
2023-10-10T13:57:20.874Z,84.69
2023-10-10T13:59:50.507Z,83.89
2023-10-10T14:02:18.514Z,82.96
2023-10-10T14:04:50.148Z,83.65
2023-10-10T14:07:17.944Z,83.66
2023-10-10T14:12:21.909Z,83.98
2023-10-10T14:14:49.528Z,83.89
2023-10-10T14:17:16.620Z,84.46
2023-10-10T14:19:43.593Z,84.17
2023-10-10T14:22:12.000Z,84.50
2023-10-10T14:24:40.553Z,84.71
2023-10-10T14:27:07.691Z,84.26
2023-10-10T14:29:42.997Z,84.52
2023-10-10T14:32:23.001Z,84.66
2023-10-10T14:34:59.311Z,84.31
2023-10-10T14:37:41.688Z,85.00
2023-10-10T14:40:13.745Z,85.29
2023-10-10T14:42:43.455Z,85.23
2023-10-10T14:45:14.294Z,85.26
2023-10-10T14:47:45.165Z,85.48
2023-10-10T14:50:14.636Z,86.04
2023-10-10T14:52:48.591Z,86.20
2023-10-10T14:55:29.284Z,86.70
2023-10-10T14:57:57.354Z,86.76
2023-10-10T15:00:30.045Z,86.91
2023-10-10T15:02:58.014Z,87.12
2023-10-10T15:05:26.993Z,87.60
2023-10-10T15:07:55.219Z,87.61
2023-10-10T15:10:27.670Z,87.67
2023-10-10T15:12:56.315Z,87.88
2023-10-10T15:15:24.633Z,87.91
2023-10-10T15:17:52.555Z,87.77
2023-10-10T15:20:20.297Z,87.81
2023-10-10T15:22:47.807Z,88.20
2023-10-10T15:25:16.754Z,87.67
2023-10-10T15:27:44.186Z,87.78
2023-10-10T15:30:12.040Z,88.00
2023-10-10T15:32:48.809Z,87.72
2023-10-10T15:35:18.346Z,88.31
2023-10-10T15:37:45.978Z,88.14
2023-10-10T15:40:15.178Z,88.19
2023-10-10T15:42:42.247Z,88.32
2023-10-10T15:45:09.553Z,88.33
2023-10-10T15:47:36.742Z,88.95
2023-10-10T15:50:03.927Z,88.48
2023-10-10T15:52:35.173Z,88.64
2023-10-10T15:55:07.054Z,88.74
2023-10-10T15:57:37.265Z,89.04
2023-10-10T16:00:11.987Z,89.29
2023-10-10T16:02:41.170Z,89.59
2023-10-10T16:05:08.665Z,89.50
2023-10-10T16:07:35.817Z,89.90
2023-10-10T16:10:04.381Z,89.59
2023-10-10T16:12:31.607Z,90.09
2023-10-10T16:15:01.393Z,90.47
2023-10-10T16:17:30.244Z,90.26
2023-10-10T16:19:59.633Z,90.55
2023-10-10T16:22:27.327Z,90.46
2023-10-10T16:24:54.287Z,90.26
2023-10-10T16:27:23.004Z,90.23
2023-10-10T16:29:56.870Z,89.97
2023-10-10T16:32:24.373Z,89.84
2023-10-10T16:34:51.998Z,89.77
2023-10-10T16:37:22.016Z,89.63
2023-10-10T16:39:49.986Z,89.46
2023-10-10T16:42:21.060Z,88.86
2023-10-10T16:44:48.891Z,89.31
2023-10-10T16:47:19.500Z,89.25
2023-10-10T16:49:52.011Z,89.48
2023-10-10T16:52:21.126Z,89.55
2023-10-10T16:54:52.505Z,89.38
2023-10-10T16:57:25.879Z,89.28
2023-10-10T16:59:57.052Z,89.53
2023-10-10T17:02:30.239Z,89.47
2023-10-10T17:05:02.008Z,89.70
2023-10-10T17:07:31.839Z,89.34
2023-10-10T17:09:59.251Z,89.55
2023-10-10T17:12:26.791Z,89.41
2023-10-10T17:14:54.125Z,89.36
2023-10-10T17:17:26.189Z,89.36
2023-10-10T17:19:53.664Z,89.36
2023-10-10T17:22:21.320Z,89.38
2023-10-10T17:24:48.806Z,89.35
2023-10-10T17:27:15.906Z,89.26
2023-10-10T17:29:43.110Z,89.19
2023-10-10T17:32:10.319Z,89.66
2023-10-10T17:34:37.346Z,89.38
2023-10-10T17:37:10.123Z,89.55
2023-10-10T17:39:37.247Z,89.71
2023-10-10T17:42:05.234Z,89.60
2023-10-10T17:44:32.741Z,89.61
2023-10-10T17:46:59.833Z,89.47
2023-10-10T17:49:27.014Z,89.48
2023-10-10T17:51:55.879Z,89.75
2023-10-10T17:54:23.319Z,90.03
2023-10-10T17:56:50.547Z,89.65
2023-10-10T17:59:20.334Z,89.64
2023-10-10T18:01:47.576Z,90.06
2023-10-10T18:04:16.912Z,90.11
2023-10-10T18:06:44.286Z,90.18
2023-10-10T18:09:11.466Z,90.14
2023-10-10T18:11:38.747Z,90.31
2023-10-10T18:14:08.654Z,90.32
2023-10-10T18:16:36.308Z,90.47
2023-10-10T18:19:06.274Z,90.39
2023-10-10T18:21:34.455Z,90.40
2023-10-10T18:24:07.711Z,90.39
2023-10-10T18:26:39.589Z,90.54
2023-10-10T18:29:07.585Z,91.06
2023-10-10T18:31:40.117Z,91.15
2023-10-10T18:34:07.982Z,90.71
2023-10-10T18:36:38.765Z,91.10
2023-10-10T18:39:14.641Z,90.93
2023-10-10T18:41:43.071Z,90.83
2023-10-10T18:44:11.092Z,91.25
2023-10-10T18:46:38.270Z,91.07
2023-10-10T18:49:06.961Z,91.15
2023-10-10T18:51:34.397Z,90.93
2023-10-10T18:54:01.482Z,91.20
2023-10-10T18:56:29.140Z,91.40
2023-10-10T18:58:56.858Z,91.13
2023-10-10T19:01:24.104Z,91.42
2023-10-10T19:03:52.386Z,91.48
2023-10-10T19:06:19.927Z,91.61
2023-10-10T19:08:50.162Z,91.52
2023-10-10T19:11:24.824Z,91.48
2023-10-10T19:13:52.108Z,91.46
2023-10-10T19:16:19.410Z,91.62
2023-10-10T19:18:47.189Z,91.82
2023-10-10T19:21:19.559Z,92.06
2023-10-10T19:23:51.416Z,91.56
2023-10-10T19:26:18.890Z,91.68
2023-10-10T19:28:54.424Z,91.47
2023-10-10T19:31:25.400Z,91.76
2023-10-10T19:33:52.736Z,91.80
2023-10-10T19:36:21.924Z,91.82
2023-10-10T19:38:49.471Z,91.73
2023-10-10T19:41:19.523Z,91.78
2023-10-10T19:43:47.230Z,91.68
2023-10-10T19:46:14.335Z,91.54
2023-10-10T19:48:41.884Z,91.45
2023-10-10T19:51:19.769Z,91.67
2023-10-10T19:53:51.824Z,91.39
2023-10-10T19:56:19.854Z,90.82
2023-10-10T19:58:47.370Z,91.57
2023-10-10T20:01:14.813Z,91.45
2023-10-10T20:03:43.860Z,91.24
2023-10-10T20:06:22.086Z,91.00
2023-10-10T20:08:50.442Z,91.15
2023-10-10T20:11:17.864Z,91.62
2023-10-10T20:13:46.636Z,91.71
2023-10-10T20:16:16.030Z,91.63
2023-10-10T20:18:48.698Z,91.20
2023-10-10T20:21:17.536Z,91.57
2023-10-10T20:23:45.773Z,91.67
2023-10-10T20:26:19.388Z,92.07
2023-10-10T20:28:49.167Z,92.08
2023-10-10T20:31:19.094Z,92.29
2023-10-10T20:33:49.139Z,92.29
2023-10-10T20:36:17.199Z,92.14
2023-10-10T20:38:45.203Z,92.06
2023-10-10T20:41:13.992Z,92.11
2023-10-10T20:43:42.135Z,92.20
2023-10-10T20:46:10.920Z,92.25
2023-10-10T20:48:38.239Z,91.97
2023-10-10T20:51:05.660Z,91.44
2023-10-10T20:53:32.854Z,91.81
2023-10-10T20:56:02.313Z,91.86
2023-10-10T20:58:30.410Z,91.94
2023-10-10T21:00:57.810Z,91.82
2023-10-10T21:03:25.107Z,91.43
2023-10-10T21:05:52.179Z,91.54
2023-10-10T21:08:19.669Z,91.62
2023-10-10T21:10:47.157Z,91.59
2023-10-10T21:13:15.391Z,91.42
2023-10-10T21:15:42.779Z,91.52
2023-10-10T21:18:10.299Z,91.61
2023-10-10T21:23:11.869Z,91.39
2023-10-10T21:25:42.623Z,91.38
2023-10-10T21:28:09.909Z,91.33
2023-10-10T21:30:39.525Z,91.32
2023-10-10T21:33:08.181Z,91.28
2023-10-10T21:35:35.846Z,91.64
2023-10-10T21:38:03.669Z,91.71
2023-10-10T21:40:33.996Z,91.77
2023-10-10T21:43:01.465Z,91.61
2023-10-10T21:45:33.540Z,91.70
2023-10-10T21:48:05.359Z,91.73
2023-10-10T21:50:33.085Z,92.01
2023-10-10T21:53:01.557Z,92.08
2023-10-10T21:55:29.317Z,91.83
2023-10-10T21:57:57.146Z,91.86
2023-10-10T22:00:46.041Z,91.97
2023-10-10T22:03:15.285Z,92.14
2023-10-10T22:05:46.487Z,92.14
2023-10-10T22:08:14.124Z,92.23
2023-10-10T22:10:43.303Z,92.38
2023-10-10T22:13:16.365Z,92.63
2023-10-10T22:15:43.535Z,92.28
2023-10-10T22:18:12.885Z,92.34
2023-10-10T22:20:43.486Z,92.20
2023-10-10T22:23:10.750Z,92.48
2023-10-10T22:25:38.162Z,92.40
2023-10-10T22:28:05.925Z,92.57
2023-10-10T22:30:37.064Z,92.26
2023-10-10T22:33:05.365Z,92.35
2023-10-10T22:35:35.402Z,92.17
2023-10-10T22:38:02.956Z,92.37
2023-10-10T22:40:29.942Z,92.67
2023-10-10T22:43:02.803Z,92.12
2023-10-10T22:45:34.603Z,92.61
2023-10-10T22:48:05.106Z,92.19
2023-10-10T22:50:32.649Z,92.44
2023-10-10T22:53:02.524Z,92.24
2023-10-10T22:55:34.742Z,92.87
2023-10-10T22:58:08.041Z,93.00
2023-10-10T23:00:37.994Z,92.73
2023-10-10T23:03:11.230Z,92.65
2023-10-10T23:05:44.187Z,92.99
2023-10-10T23:08:12.674Z,92.97
2023-10-10T23:10:44.668Z,92.86
2023-10-10T23:13:17.182Z,93.21
2023-10-10T23:15:49.166Z,92.93
2023-10-10T23:18:20.310Z,92.89
2023-10-10T23:20:47.860Z,92.94
2023-10-10T23:23:17.470Z,92.91
2023-10-10T23:25:48.412Z,92.98
2023-10-10T23:28:15.442Z,93.18
2023-10-10T23:30:43.483Z,93.24
2023-10-10T23:33:14.828Z,93.05
2023-10-10T23:35:42.715Z,93.52
2023-10-10T23:38:11.107Z,93.52
2023-10-10T23:40:42.011Z,93.47
2023-10-10T23:43:10.247Z,93.59
2023-10-10T23:45:43.712Z,93.39
2023-10-10T23:48:18.147Z,93.36
2023-10-10T23:50:46.637Z,93.53
2023-10-10T23:53:14.687Z,93.93
2023-10-10T23:55:42.495Z,94.01
2023-10-10T23:58:13.243Z,94.17
